createdAt,value
2018-08-16T00:00:21.787Z,84.05
2018-08-16T00:01:21.790Z,85.05
2018-08-16T00:02:21.772Z,84.39
2018-08-16T00:03:21.760Z,84.89
2018-08-16T00:04:21.782Z,84.49
2018-08-16T00:05:21.726Z,84.80
2018-08-16T00:06:21.725Z,84.59
2018-08-16T00:07:21.718Z,84.59
2018-08-16T00:08:21.700Z,86.30
2018-08-16T00:09:21.719Z,84.59
2018-08-16T00:10:21.670Z,86.55
2018-08-16T00:11:21.665Z,84.80
2018-08-16T00:12:21.685Z,85.64
2018-08-16T00:13:21.656Z,85.94
2018-08-16T00:14:21.627Z,86.24
2018-08-16T00:15:21.620Z,86.44
2018-08-16T00:16:21.631Z,85.54
2018-08-16T00:17:21.590Z,86.65
2018-08-16T00:18:21.582Z,85.84
2018-08-16T00:19:21.573Z,86.65
2018-08-16T00:20:21.559Z,85.34
2018-08-16T00:21:21.585Z,85.74
2018-08-16T00:22:21.559Z,85.74
2018-08-16T00:23:21.517Z,85.24
2018-08-16T00:24:21.508Z,86.35
2018-08-16T00:25:21.499Z,86.55
2018-08-16T00:26:21.487Z,86.15
2018-08-16T00:27:21.504Z,86.15
2018-08-16T00:28:21.471Z,86.44
2018-08-16T00:29:21.457Z,86.55
2018-08-16T00:30:21.445Z,86.41
2018-08-16T00:31:21.478Z,86.65
2018-08-16T00:32:21.471Z,86.44
2018-08-16T00:33:21.411Z,86.35
2018-08-16T00:34:21.393Z,86.95
2018-08-16T00:35:21.394Z,87.05
2018-08-16T00:36:21.381Z,86.65
2018-08-16T00:37:21.410Z,86.55
2018-08-16T00:38:21.408Z,87.05
2018-08-16T00:39:21.339Z,87.15
2018-08-16T00:40:21.335Z,86.65
2018-08-16T00:41:21.323Z,87.05
2018-08-16T00:42:21.311Z,87.15
2018-08-16T00:43:21.356Z,86.85
2018-08-16T00:44:21.291Z,87.45
2018-08-16T00:45:21.273Z,87.05
2018-08-16T00:46:21.259Z,86.85
2018-08-16T00:47:21.263Z,87.09
2018-08-16T00:48:21.289Z,86.29
2018-08-16T00:49:21.237Z,86.44
2018-08-16T00:50:21.235Z,86.65
2018-08-16T00:51:21.221Z,86.38
2018-08-16T00:52:21.210Z,86.15
2018-08-16T00:53:21.241Z,87.15
2018-08-16T00:54:21.182Z,87.70
2018-08-16T00:55:21.173Z,87.80
2018-08-16T00:56:21.180Z,87.80
2018-08-16T00:57:21.150Z,86.79
2018-08-16T00:58:21.183Z,88.20
2018-08-16T00:59:21.127Z,86.69
2018-08-16T01:00:21.111Z,88.00
2018-08-16T01:01:21.111Z,87.60
2018-08-16T01:02:28.901Z,87.60
2018-08-16T01:03:21.118Z,87.90
2018-08-16T01:04:21.088Z,88.10
2018-08-16T01:05:21.068Z,86.58
2018-08-16T01:06:21.050Z,87.70
2018-08-16T01:07:21.038Z,87.80
2018-08-16T01:08:21.058Z,86.89
2018-08-16T01:09:21.046Z,88.10
2018-08-16T01:10:21.010Z,87.09
2018-08-16T01:11:28.954Z,88.60
2018-08-16T01:12:20.986Z,87.40
2018-08-16T01:13:21.010Z,87.49
2018-08-16T01:14:28.475Z,87.63
2018-08-16T01:15:20.945Z,87.09
2018-08-16T01:16:20.937Z,88.50
2018-08-16T01:17:28.514Z,87.09
2018-08-16T01:18:20.939Z,87.70
2018-08-16T01:19:20.921Z,86.89
2018-08-16T01:20:21.080Z,87.09
2018-08-16T01:21:20.877Z,87.70
2018-08-16T01:22:20.853Z,87.29
2018-08-16T01:23:20.899Z,87.19
2018-08-16T01:24:20.835Z,87.29
2018-08-16T01:25:20.861Z,86.44
2018-08-16T01:26:20.823Z,86.38
2018-08-16T01:27:20.819Z,86.69
2018-08-16T01:28:20.811Z,87.29
2018-08-16T01:29:20.790Z,87.35
2018-08-16T01:30:20.810Z,87.15
2018-08-16T01:31:20.769Z,86.65
2018-08-16T01:32:20.760Z,86.44
2018-08-16T01:33:20.755Z,87.15
2018-08-16T01:34:20.759Z,86.85
2018-08-16T01:35:30.121Z,86.85
2018-08-16T01:36:20.713Z,86.69
2018-08-16T01:37:20.699Z,86.95
2018-08-16T01:38:20.704Z,86.38
2018-08-16T01:39:20.708Z,86.89
2018-08-16T01:40:20.673Z,87.25
2018-08-16T01:41:28.579Z,86.85
2018-08-16T01:42:20.638Z,86.29
2018-08-16T01:43:20.627Z,86.89
2018-08-16T01:44:30.147Z,86.89
2018-08-16T01:45:20.605Z,86.29
2018-08-16T01:46:20.591Z,87.49
2018-08-16T01:47:28.159Z,87.29
2018-08-16T01:48:20.568Z,87.70
2018-08-16T01:49:20.565Z,86.99
2018-08-16T01:50:29.711Z,86.58
2018-08-16T01:51:20.567Z,87.70
2018-08-16T01:52:20.530Z,87.23
2018-08-16T01:53:20.521Z,86.89
2018-08-16T01:54:20.495Z,87.63
2018-08-16T01:55:20.501Z,86.53
2018-08-16T01:56:28.751Z,86.93
2018-08-16T01:57:20.497Z,86.69
2018-08-16T01:58:20.459Z,87.03
2018-08-16T01:59:28.255Z,87.63
2018-08-16T02:00:20.439Z,86.99
2018-08-16T02:01:20.431Z,87.19
2018-08-16T02:02:29.807Z,87.23
2018-08-16T02:03:20.414Z,87.63
2018-08-16T02:04:20.401Z,87.63
2018-08-16T02:05:28.323Z,87.23
2018-08-16T02:06:20.376Z,87.13
2018-08-16T02:07:20.368Z,87.23
2018-08-16T02:08:29.906Z,86.73
2018-08-16T02:09:20.347Z,86.93
2018-08-16T02:10:20.357Z,87.09
2018-08-16T02:11:27.886Z,86.79
2018-08-16T02:12:20.344Z,87.19
2018-08-16T02:13:20.294Z,86.99
2018-08-16T02:14:27.929Z,86.89
2018-08-16T02:15:20.277Z,86.89
2018-08-16T02:16:20.274Z,86.99
2018-08-16T02:17:20.309Z,86.38
2018-08-16T02:18:20.237Z,86.58
2018-08-16T02:19:20.248Z,86.58
2018-08-16T02:20:27.967Z,86.49
2018-08-16T02:21:20.203Z,86.69
2018-08-16T02:22:20.225Z,87.19
2018-08-16T02:23:29.507Z,86.69
2018-08-16T02:24:20.175Z,86.49
2018-08-16T02:25:20.156Z,86.69
2018-08-16T02:26:28.027Z,86.49
2018-08-16T02:27:20.128Z,86.18
2018-08-16T02:28:20.156Z,85.38
2018-08-16T02:29:20.126Z,86.29
2018-08-16T02:30:20.104Z,85.68
2018-08-16T02:31:20.081Z,86.38
2018-08-16T02:32:28.059Z,86.29
2018-08-16T02:33:20.113Z,86.79
2018-08-16T02:34:20.055Z,86.18
2018-08-16T02:35:27.585Z,86.53
2018-08-16T02:36:20.029Z,86.38
2018-08-16T02:37:20.010Z,85.58
2018-08-16T02:38:29.159Z,86.63
2018-08-16T02:39:20.005Z,86.58
2018-08-16T02:40:19.992Z,86.58
2018-08-16T02:41:27.676Z,86.33
2018-08-16T02:42:19.988Z,86.58
2018-08-16T02:43:19.960Z,86.33
2018-08-16T02:44:29.241Z,86.43
2018-08-16T02:45:19.943Z,86.49
2018-08-16T02:46:19.923Z,85.58
2018-08-16T02:47:30.254Z,86.08
2018-08-16T02:48:19.911Z,86.33
2018-08-16T02:49:19.920Z,85.62
2018-08-16T02:50:19.888Z,85.48
2018-08-16T02:51:19.867Z,85.31
2018-08-16T02:52:19.864Z,86.13
2018-08-16T02:53:19.870Z,85.72
2018-08-16T02:54:19.869Z,85.08
2018-08-16T02:55:19.820Z,85.62
2018-08-16T02:56:19.810Z,85.68
2018-08-16T02:57:19.793Z,86.49
2018-08-16T02:58:19.803Z,86.29
2018-08-16T02:59:19.804Z,85.78
2018-08-16T03:00:19.799Z,85.82
2018-08-16T03:01:19.756Z,85.92
2018-08-16T03:02:19.734Z,86.02
2018-08-16T03:03:19.728Z,85.42
2018-08-16T03:04:19.738Z,85.72
2018-08-16T03:05:19.752Z,86.22
2018-08-16T03:06:19.693Z,85.78
2018-08-16T03:07:19.686Z,86.13
2018-08-16T03:08:19.669Z,85.31
2018-08-16T03:09:19.671Z,85.42
2018-08-16T03:10:19.717Z,84.61
2018-08-16T03:12:40.233Z,84.81
2018-08-16T03:14:54.064Z,84.61
2018-08-16T03:52:43.938Z,84.29
2018-08-16T03:59:23.732Z,84.93
2018-08-16T04:29:08.197Z,85.68
2018-08-16T04:37:53.998Z,85.14
2018-08-16T04:42:06.843Z,85.03
2018-08-16T04:57:22.364Z,84.53
2018-08-16T05:06:34.026Z,83.52
2018-08-16T05:09:31.476Z,82.78
2018-08-16T05:12:33.003Z,82.98
2018-08-16T05:14:54.605Z,83.07
2018-08-16T05:15:54.565Z,81.96
2018-08-16T05:16:54.562Z,82.33
2018-08-16T05:17:54.548Z,83.04
2018-08-16T05:18:54.534Z,82.03
2018-08-16T05:19:54.556Z,82.43
2018-08-16T05:20:54.512Z,82.03
2018-08-16T05:21:54.506Z,81.73
2018-08-16T05:22:54.500Z,82.43
2018-08-16T05:23:54.575Z,81.18
2018-08-16T05:24:54.478Z,82.39
2018-08-16T05:26:02.414Z,81.59
2018-08-16T05:26:54.443Z,81.99
2018-08-16T05:27:54.430Z,82.39
2018-08-16T05:29:03.494Z,80.98
2018-08-16T05:29:54.420Z,81.28
2018-08-16T05:30:54.440Z,81.18
2018-08-16T05:32:01.992Z,81.79
2018-08-16T05:32:54.383Z,81.18
2018-08-16T05:33:54.372Z,80.64
2018-08-16T05:35:02.028Z,81.38
2018-08-16T05:35:54.384Z,80.88
2018-08-16T05:36:54.335Z,80.47
2018-08-16T05:38:03.056Z,80.33
2018-08-16T05:38:54.319Z,80.64
2018-08-16T05:39:54.304Z,80.44
2018-08-16T05:41:03.600Z,79.63
2018-08-16T05:41:54.276Z,79.93
2018-08-16T05:42:54.296Z,79.93
2018-08-16T05:44:02.114Z,79.93
2018-08-16T05:44:54.244Z,79.73
2018-08-16T05:45:54.238Z,80.24
2018-08-16T05:47:03.653Z,78.99
2018-08-16T05:47:54.207Z,79.43
2018-08-16T05:48:54.204Z,79.39
2018-08-16T05:49:54.193Z,79.19
2018-08-16T05:50:54.344Z,78.89
2018-08-16T05:51:54.196Z,78.59
2018-08-16T05:53:02.164Z,78.79
2018-08-16T05:53:54.136Z,78.39
2018-08-16T05:54:54.141Z,78.59
2018-08-16T05:56:03.236Z,77.88
2018-08-16T05:56:54.099Z,78.28
2018-08-16T05:57:54.113Z,78.55
2018-08-16T05:58:54.082Z,77.75
2018-08-16T05:59:54.081Z,77.55
2018-08-16T06:00:54.181Z,77.75
2018-08-16T06:01:54.045Z,77.64
2018-08-16T06:02:54.036Z,77.50
2018-08-16T06:03:54.064Z,76.90
2018-08-16T06:04:54.016Z,77.00
2018-08-16T06:05:54.079Z,77.00
2018-08-16T06:06:53.992Z,76.60
2018-08-16T06:07:54.018Z,76.30
2018-08-16T06:08:53.970Z,76.36
2018-08-16T06:09:53.963Z,76.40
2018-08-16T06:10:53.946Z,76.67
2018-08-16T06:11:53.958Z,76.46
2018-08-16T06:12:53.917Z,76.06
2018-08-16T06:14:01.745Z,75.86
2018-08-16T06:14:53.985Z,75.22
2018-08-16T06:15:53.889Z,75.52
2018-08-16T06:16:53.925Z,75.02
2018-08-16T06:17:53.932Z,75.72
2018-08-16T06:18:53.865Z,74.68
2018-08-16T06:19:53.888Z,73.88
2018-08-16T06:20:53.857Z,73.64
2018-08-16T06:21:53.830Z,72.97
2018-08-16T06:22:53.872Z,71.63
2018-08-16T06:23:53.835Z,69.66
2018-08-16T06:24:53.796Z,68.02
2018-08-16T06:25:53.794Z,66.75
2018-08-16T06:26:53.822Z,64.52
2018-08-16T06:27:53.764Z,64.32
2018-08-16T06:28:53.751Z,63.82
2018-08-16T06:29:53.742Z,63.59
2018-08-16T06:30:53.721Z,62.70
2018-08-16T06:31:53.784Z,62.46
2018-08-16T06:32:53.814Z,62.34
2018-08-16T06:33:53.699Z,62.34
2018-08-16T06:34:53.695Z,61.21
2018-08-16T06:35:53.675Z,60.80
2018-08-16T06:36:53.684Z,60.38
2018-08-16T06:37:53.726Z,60.58
2018-08-16T06:38:53.786Z,60.48
2018-08-16T06:39:53.649Z,59.88
2018-08-16T06:40:53.665Z,59.65
2018-08-16T06:41:53.615Z,59.75
2018-08-16T06:42:53.626Z,59.75
2018-08-16T06:43:53.604Z,58.95
2018-08-16T06:44:53.578Z,59.22
2018-08-16T06:45:53.591Z,58.53
2018-08-16T06:46:53.586Z,58.83
2018-08-16T06:47:53.726Z,58.50
2018-08-16T06:48:56.940Z,58.00
2018-08-16T06:49:53.515Z,58.29
2018-08-16T06:50:53.514Z,57.05
2018-08-16T06:51:53.494Z,56.77
2018-08-16T06:52:53.536Z,56.77
2018-08-16T06:53:53.514Z,57.28
2018-08-16T06:54:54.818Z,57.50
2018-08-16T06:55:53.541Z,57.47
2018-08-16T06:56:53.438Z,56.98
2018-08-16T06:57:53.467Z,57.17
2018-08-16T06:58:53.482Z,55.76
2018-08-16T06:59:53.551Z,56.15
2018-08-16T07:00:53.469Z,55.82
2018-08-16T07:01:53.461Z,54.60
2018-08-16T07:02:53.438Z,55.03
2018-08-16T07:03:53.886Z,55.23
2018-08-16T07:04:53.681Z,54.90
2018-08-16T07:05:53.328Z,54.50
2018-08-16T07:06:54.756Z,54.80
2018-08-16T07:07:53.440Z,54.01
2018-08-16T07:08:53.300Z,54.33
2018-08-16T07:09:53.329Z,55.35
2018-08-16T07:10:53.314Z,54.03
2018-08-16T07:11:53.350Z,54.50
2018-08-16T07:12:53.252Z,54.43
2018-08-16T07:13:53.248Z,53.69
2018-08-16T07:14:53.264Z,52.76
2018-08-16T07:15:53.267Z,53.06
2018-08-16T07:16:53.224Z,52.37
2018-08-16T07:17:53.248Z,52.04
2018-08-16T07:18:53.312Z,51.84
2018-08-16T07:19:53.201Z,51.92
2018-08-16T07:20:53.165Z,52.04
2018-08-16T07:21:53.198Z,52.34
2018-08-16T07:22:53.142Z,51.52
2018-08-16T07:23:53.124Z,50.58
2018-08-16T07:24:53.239Z,50.56
2018-08-16T07:25:53.136Z,50.81
2018-08-16T07:26:53.163Z,52.24
2018-08-16T07:27:53.087Z,52.86
2018-08-16T07:28:53.077Z,54.63
2018-08-16T07:29:53.123Z,56.55
2018-08-16T07:30:53.047Z,57.17
2018-08-16T07:31:53.126Z,57.70
2018-08-16T07:32:53.028Z,57.73
2018-08-16T07:33:53.012Z,57.86
2018-08-16T07:34:53.011Z,59.15
2018-08-16T07:35:52.989Z,58.95
2018-08-16T07:36:53.043Z,58.48
2018-08-16T07:37:52.976Z,59.51
2018-08-16T07:38:52.950Z,60.21
2018-08-16T07:39:52.943Z,60.21
2018-08-16T07:40:52.945Z,59.51
2018-08-16T07:41:52.968Z,59.78
2018-08-16T07:42:52.933Z,59.78
2018-08-16T07:43:52.914Z,59.38
2018-08-16T07:44:52.937Z,58.38
2018-08-16T07:45:53.029Z,59.25
2018-08-16T07:46:52.867Z,59.45
2018-08-16T07:47:52.888Z,58.83
2018-08-16T07:48:52.831Z,57.00
2018-08-16T07:50:02.319Z,56.35
2018-08-16T07:50:52.820Z,54.50
2018-08-16T07:51:52.847Z,52.24
2018-08-16T07:52:52.811Z,52.79
2018-08-16T07:53:52.805Z,52.34
2018-08-16T07:54:52.800Z,52.84
2018-08-16T07:56:00.297Z,52.61
2018-08-16T07:56:52.754Z,52.96
2018-08-16T07:57:52.751Z,54.71
2018-08-16T07:59:02.378Z,54.43
2018-08-16T07:59:52.720Z,56.05
2018-08-16T08:00:52.715Z,56.85
2018-08-16T08:02:00.361Z,56.65
2018-08-16T08:02:52.677Z,57.54
2018-08-16T08:03:52.751Z,56.48
2018-08-16T08:05:01.920Z,56.57
2018-08-16T08:05:52.654Z,56.81
2018-08-16T08:06:52.686Z,57.10
2018-08-16T08:08:00.431Z,56.21
2018-08-16T08:08:52.694Z,56.81
2018-08-16T08:09:52.720Z,57.50
2018-08-16T08:11:01.987Z,57.33
2018-08-16T08:11:52.591Z,56.70
2018-08-16T08:12:52.619Z,57.50
2018-08-16T08:14:00.517Z,56.83
2018-08-16T08:14:52.583Z,56.01
2018-08-16T08:15:52.577Z,56.30
2018-08-16T08:16:52.585Z,56.53
2018-08-16T08:17:52.532Z,56.81
2018-08-16T08:18:52.523Z,56.93
2018-08-16T08:19:52.487Z,57.43
2018-08-16T08:20:52.478Z,57.63
2018-08-16T08:21:52.506Z,57.33
2018-08-16T08:22:52.501Z,57.20
2018-08-16T08:23:52.441Z,57.00
2018-08-16T08:24:52.448Z,56.38
2018-08-16T08:26:00.115Z,56.48
2018-08-16T08:26:52.458Z,55.78
2018-08-16T08:27:52.393Z,55.78
2018-08-16T08:28:52.396Z,56.38
2018-08-16T08:29:52.374Z,56.87
2018-08-16T08:30:52.398Z,56.48
2018-08-16T08:32:00.075Z,56.48
2018-08-16T08:32:52.359Z,56.18
2018-08-16T08:33:52.343Z,56.75
2018-08-16T08:34:52.429Z,56.05
2018-08-16T08:35:52.354Z,54.66
2018-08-16T08:36:52.320Z,55.35
2018-08-16T08:37:52.331Z,55.55
2018-08-16T08:38:52.344Z,54.63
2018-08-16T08:39:52.278Z,54.90
2018-08-16T08:40:52.258Z,54.73
2018-08-16T08:41:52.252Z,54.71
2018-08-16T08:42:52.275Z,53.88
2018-08-16T08:44:01.107Z,54.18
2018-08-16T08:44:52.217Z,53.69
2018-08-16T08:45:52.215Z,53.39
2018-08-16T08:47:00.180Z,52.37
2018-08-16T08:47:52.213Z,53.36
2018-08-16T08:48:52.252Z,52.67
2018-08-16T08:49:59.715Z,52.17
2018-08-16T08:50:52.158Z,52.19
2018-08-16T08:51:52.134Z,53.39
2018-08-16T08:52:59.730Z,54.48
2018-08-16T08:53:52.151Z,52.89
2018-08-16T08:54:52.115Z,52.69
2018-08-16T08:55:59.774Z,52.09
2018-08-16T08:56:52.077Z,52.42
2018-08-16T08:57:52.099Z,52.69
2018-08-16T08:58:52.062Z,52.69
2018-08-16T08:59:52.098Z,52.49
2018-08-16T09:00:52.041Z,52.89
2018-08-16T09:01:59.074Z,52.17
2018-08-16T09:02:52.073Z,52.17
2018-08-16T09:03:51.994Z,51.97
2018-08-16T09:04:59.826Z,52.96
2018-08-16T09:05:51.990Z,51.67
2018-08-16T09:06:51.992Z,51.28
2018-08-16T09:08:01.377Z,51.57
2018-08-16T09:08:51.950Z,52.17
2018-08-16T09:09:51.924Z,50.88
2018-08-16T09:10:51.922Z,51.28
2018-08-16T09:11:51.919Z,51.28
2018-08-16T09:12:51.888Z,50.23
2018-08-16T09:14:01.420Z,50.03
2018-08-16T09:14:51.919Z,49.02
2018-08-16T09:15:51.862Z,48.27
2018-08-16T09:16:59.431Z,46.97
2018-08-16T09:17:51.871Z,46.94
2018-08-16T09:18:51.850Z,47.14
2018-08-16T09:19:59.461Z,46.33
2018-08-16T09:20:51.815Z,45.39
2018-08-16T09:21:51.851Z,45.42
2018-08-16T09:22:59.511Z,43.33
2018-08-16T09:23:51.808Z,42.28
2018-08-16T09:24:51.773Z,40.80
2018-08-16T09:25:59.529Z,40.48
2018-08-16T09:26:51.741Z,40.76
2018-08-16T09:27:51.741Z,40.96
2018-08-16T09:28:51.793Z,39.37
2018-08-16T09:29:51.722Z,38.76
2018-08-16T09:30:51.723Z,38.97
2018-08-16T09:31:51.701Z,39.18
2018-08-16T09:32:51.707Z,39.37
2018-08-16T09:33:51.721Z,39.09
2018-08-16T09:35:00.117Z,39.37
2018-08-16T09:35:51.678Z,38.60
2018-08-16T09:36:51.641Z,39.20
2018-08-16T09:37:51.632Z,39.58
2018-08-16T09:38:51.619Z,39.09
2018-08-16T09:39:51.700Z,38.95
2018-08-16T09:41:01.114Z,39.56
2018-08-16T09:41:51.570Z,38.28
2018-08-16T09:42:51.564Z,38.58
2018-08-16T09:43:59.132Z,38.26
2018-08-16T09:44:51.543Z,39.17
2018-08-16T09:45:51.544Z,38.78
2018-08-16T09:46:59.713Z,38.87
2018-08-16T09:47:51.512Z,38.54
2018-08-16T09:48:51.510Z,38.09
2018-08-16T09:49:51.519Z,36.76
2018-08-16T09:50:51.477Z,36.35
2018-08-16T09:51:51.508Z,36.08
2018-08-16T09:53:02.214Z,35.70
2018-08-16T09:53:51.450Z,38.26
2018-08-16T09:54:51.447Z,36.62
2018-08-16T09:55:59.235Z,37.07
2018-08-16T09:56:51.428Z,39.01
2018-08-16T09:57:51.520Z,37.74
2018-08-16T09:58:59.238Z,37.72
2018-08-16T09:59:51.402Z,38.48
2018-08-16T10:00:51.389Z,39.03
2018-08-16T10:01:51.401Z,39.54
2018-08-16T10:02:51.405Z,39.58
2018-08-16T10:03:51.349Z,37.85
2018-08-16T10:05:00.295Z,37.07
2018-08-16T10:05:51.327Z,35.60
2018-08-16T10:06:51.323Z,35.10
2018-08-16T10:07:51.365Z,35.89
2018-08-16T10:08:51.305Z,36.27
2018-08-16T10:09:51.286Z,35.97
2018-08-16T10:10:51.271Z,35.85
2018-08-16T10:11:51.275Z,34.24
2018-08-16T10:12:51.283Z,34.62
2018-08-16T10:13:51.240Z,34.34
2018-08-16T10:14:51.271Z,34.11
2018-08-16T10:15:51.217Z,34.47
2018-08-16T10:16:59.814Z,35.00
2018-08-16T10:17:51.203Z,34.31
2018-08-16T10:18:51.194Z,34.21
2018-08-16T10:20:00.377Z,34.51
2018-08-16T10:20:51.226Z,35.58
2018-08-16T10:21:51.161Z,34.21
2018-08-16T10:22:59.879Z,34.78
2018-08-16T10:23:51.139Z,34.61
2018-08-16T10:24:51.159Z,35.21
2018-08-16T10:25:51.113Z,35.33
2018-08-16T10:26:51.152Z,34.83
2018-08-16T10:27:51.096Z,36.74
2018-08-16T10:28:59.912Z,36.13
2018-08-16T10:29:51.112Z,36.29
2018-08-16T10:30:51.060Z,35.47
2018-08-16T10:31:59.449Z,34.49
2018-08-16T10:32:51.042Z,34.26
2018-08-16T10:33:51.025Z,34.34
2018-08-16T10:34:51.055Z,34.14
2018-08-16T10:35:51.013Z,33.14
2018-08-16T10:36:50.998Z,32.92
2018-08-16T10:37:58.986Z,32.53
2018-08-16T10:38:50.976Z,32.53
2018-08-16T10:39:51.025Z,32.43
2018-08-16T10:40:50.969Z,32.24
2018-08-16T10:41:50.966Z,32.35
2018-08-16T10:42:50.942Z,33.17
2018-08-16T10:43:50.926Z,32.99
2018-08-16T10:44:50.975Z,33.20
2018-08-16T10:45:50.914Z,34.30
2018-08-16T10:46:50.891Z,33.69
2018-08-16T10:47:50.888Z,33.54
2018-08-16T10:48:50.907Z,32.87
2018-08-16T10:49:50.971Z,33.50
2018-08-16T10:50:50.869Z,33.07
2018-08-16T10:51:50.897Z,33.56
2018-08-16T10:52:50.851Z,33.12
2018-08-16T10:53:50.835Z,31.92
2018-08-16T10:54:50.831Z,32.42
2018-08-16T10:55:50.827Z,32.06
2018-08-16T10:56:50.845Z,33.54
2018-08-16T10:57:50.805Z,33.31
2018-08-16T10:58:50.775Z,31.95
2018-08-16T10:59:50.775Z,31.65
2018-08-16T11:00:50.889Z,33.07
2018-08-16T11:01:50.792Z,33.10
2018-08-16T11:02:50.820Z,34.59
2018-08-16T11:03:50.735Z,35.44
2018-08-16T11:04:50.730Z,35.62
2018-08-16T11:05:50.725Z,35.52
2018-08-16T11:06:50.736Z,34.13
2018-08-16T11:07:50.708Z,34.78
2018-08-16T11:08:50.681Z,34.59
2018-08-16T11:09:50.673Z,34.41
2018-08-16T11:10:58.521Z,34.70
2018-08-16T11:11:50.689Z,34.70
2018-08-16T11:12:50.636Z,35.10
2018-08-16T11:13:50.670Z,34.70
2018-08-16T11:14:50.615Z,33.18
2018-08-16T11:15:50.607Z,33.36
2018-08-16T11:17:01.069Z,32.17
2018-08-16T11:17:50.606Z,32.87
2018-08-16T11:18:50.595Z,32.95
2018-08-16T11:19:50.554Z,33.33
2018-08-16T11:20:50.594Z,31.67
2018-08-16T11:21:50.526Z,33.09
2018-08-16T11:22:50.552Z,33.05
2018-08-16T11:23:50.512Z,33.25
2018-08-16T11:24:50.508Z,32.16
2018-08-16T11:25:50.530Z,32.68
2018-08-16T11:26:50.481Z,33.77
2018-08-16T11:27:50.526Z,32.87
2018-08-16T11:28:50.492Z,31.96
2018-08-16T11:29:50.449Z,32.34
2018-08-16T11:30:50.460Z,32.23
2018-08-16T11:31:50.428Z,32.46
2018-08-16T11:32:50.416Z,32.17
2018-08-16T11:33:50.446Z,33.33
2018-08-16T11:34:50.407Z,32.42
2018-08-16T11:35:50.398Z,31.74
2018-08-16T11:36:50.404Z,29.96
2018-08-16T11:37:58.683Z,32.78
2018-08-16T11:38:50.395Z,33.17
2018-08-16T11:39:50.353Z,31.65
2018-08-16T11:40:58.116Z,32.04
2018-08-16T11:41:50.368Z,32.17
2018-08-16T11:42:50.342Z,32.43
2018-08-16T11:43:58.157Z,31.23
2018-08-16T11:44:50.299Z,30.34
2018-08-16T11:45:50.339Z,31.48
2018-08-16T11:46:50.284Z,32.01
2018-08-16T11:47:50.259Z,34.41
2018-08-16T11:48:50.263Z,36.36
2018-08-16T11:49:59.180Z,35.44
2018-08-16T11:50:50.265Z,37.03
2018-08-16T11:51:50.221Z,34.31
2018-08-16T11:52:50.226Z,34.67
2018-08-16T11:53:50.255Z,33.29
2018-08-16T11:54:50.208Z,33.77
2018-08-16T11:55:50.176Z,32.78
2018-08-16T11:56:50.175Z,32.39
2018-08-16T11:57:50.155Z,33.77
2018-08-16T11:58:58.257Z,33.38
2018-08-16T11:59:50.148Z,33.39
2018-08-16T12:00:50.149Z,33.17
2018-08-16T12:01:50.159Z,31.71
2018-08-16T12:02:50.114Z,32.70
2018-08-16T12:03:50.114Z,32.48
2018-08-16T12:04:59.293Z,32.68
2018-08-16T12:05:50.078Z,32.27
2018-08-16T12:06:50.125Z,33.18
2018-08-16T12:07:57.105Z,32.97
2018-08-16T12:08:50.096Z,32.27
2018-08-16T12:09:50.041Z,31.90
2018-08-16T12:10:50.062Z,32.56
2018-08-16T12:11:50.054Z,31.98
2018-08-16T12:12:50.017Z,32.19
2018-08-16T12:13:57.835Z,31.98
2018-08-16T12:14:50.006Z,32.09
2018-08-16T12:15:49.983Z,33.36
2018-08-16T12:16:50.020Z,32.26
2018-08-16T12:17:49.970Z,30.27
2018-08-16T12:18:49.961Z,31.08
2018-08-16T12:19:57.864Z,31.68
2018-08-16T12:20:49.931Z,31.88
2018-08-16T12:21:49.967Z,31.28
2018-08-16T12:22:57.896Z,31.18
2018-08-16T12:23:49.903Z,31.08
2018-08-16T12:24:49.912Z,31.65
2018-08-16T12:25:58.957Z,31.95
2018-08-16T12:26:49.874Z,31.77
2018-08-16T12:27:49.890Z,32.01
2018-08-16T12:28:57.564Z,32.61
2018-08-16T12:29:49.836Z,33.43
2018-08-16T12:30:49.852Z,32.42
2018-08-16T12:31:59.017Z,32.32
2018-08-16T12:32:49.803Z,32.07
2018-08-16T12:33:49.789Z,32.16
2018-08-16T12:34:49.822Z,32.06
2018-08-16T12:35:49.764Z,32.17
2018-08-16T12:36:49.790Z,32.17
2018-08-16T12:37:49.849Z,31.08
2018-08-16T12:38:49.753Z,32.06
2018-08-16T12:39:49.735Z,31.35
2018-08-16T12:40:57.562Z,30.52
2018-08-16T12:41:52.361Z,30.44
2018-08-16T12:42:49.698Z,30.45
2018-08-16T12:43:57.552Z,30.44
2018-08-16T12:44:49.670Z,30.63
2018-08-16T12:45:49.670Z,29.83
2018-08-16T12:46:58.137Z,32.46
2018-08-16T12:47:51.140Z,31.78
2018-08-16T12:48:49.679Z,31.00
2018-08-16T12:49:57.597Z,32.07
2018-08-16T12:50:49.619Z,32.27
2018-08-16T12:51:49.637Z,32.35
2018-08-16T12:52:49.597Z,32.14
2018-08-16T12:53:49.631Z,31.87
2018-08-16T12:54:49.590Z,31.67
2018-08-16T12:55:57.145Z,31.85
2018-08-16T12:56:49.564Z,30.83
2018-08-16T12:57:49.549Z,30.34
2018-08-16T12:58:49.576Z,30.81
2018-08-16T12:59:49.575Z,31.22
2018-08-16T13:00:49.522Z,31.62
2018-08-16T13:01:49.585Z,30.74
2018-08-16T13:02:49.497Z,30.16
2018-08-16T13:03:49.489Z,29.98
2018-08-16T13:04:58.706Z,30.84
2018-08-16T13:05:49.460Z,29.72
2018-08-16T13:06:49.469Z,30.11
2018-08-16T13:07:57.240Z,30.24
2018-08-16T13:08:49.463Z,30.74
2018-08-16T13:09:49.420Z,30.45
2018-08-16T13:10:58.770Z,31.23
2018-08-16T13:11:49.396Z,30.65
2018-08-16T13:12:49.392Z,30.57
2018-08-16T13:13:58.286Z,30.57
2018-08-16T13:14:49.412Z,30.65
2018-08-16T13:15:49.407Z,30.29
2018-08-16T13:16:57.326Z,31.56
2018-08-16T13:17:49.349Z,31.45
2018-08-16T13:18:49.333Z,30.63
2018-08-16T13:19:57.360Z,29.96
2018-08-16T13:20:49.348Z,31.10
2018-08-16T13:21:49.347Z,30.82
2018-08-16T13:22:49.301Z,30.91
2018-08-16T13:23:49.292Z,31.49
2018-08-16T13:24:49.273Z,30.80
2018-08-16T13:25:57.898Z,31.00
2018-08-16T13:26:49.302Z,31.00
2018-08-16T13:27:49.321Z,31.65
2018-08-16T13:28:56.927Z,30.18
2018-08-16T13:29:49.223Z,30.86
2018-08-16T13:30:49.219Z,29.28
2018-08-16T13:31:49.345Z,29.86
2018-08-16T13:32:49.246Z,29.83
2018-08-16T13:33:49.197Z,29.04
2018-08-16T13:36:04.851Z,29.24
2018-08-16T13:37:12.617Z,29.82
2018-08-16T13:38:04.795Z,29.35
2018-08-16T13:39:04.790Z,30.26
2018-08-16T13:40:04.775Z,30.63
2018-08-16T13:41:04.808Z,30.26
2018-08-16T13:42:04.775Z,29.86
2018-08-16T13:43:04.754Z,29.98
2018-08-16T13:44:04.743Z,30.26
2018-08-16T13:45:04.735Z,29.99
2018-08-16T13:46:04.755Z,30.29
2018-08-16T13:47:04.736Z,30.37
2018-08-16T13:48:04.716Z,30.59
2018-08-16T13:49:04.692Z,31.70
2018-08-16T13:50:04.688Z,31.01
2018-08-16T13:51:04.699Z,30.41
2018-08-16T13:52:04.684Z,30.98
2018-08-16T13:53:04.809Z,30.20
2018-08-16T13:54:04.648Z,30.22
2018-08-16T13:55:04.691Z,31.39
2018-08-16T13:56:04.628Z,30.68
2018-08-16T13:57:04.601Z,30.26
2018-08-16T13:58:04.621Z,29.04
2018-08-16T13:59:04.583Z,29.13
2018-08-16T14:00:04.585Z,28.05
2018-08-16T14:01:04.601Z,28.75
2018-08-16T14:02:04.557Z,29.06
2018-08-16T14:03:04.577Z,29.88
2018-08-16T14:04:04.569Z,30.59
2018-08-16T14:05:04.524Z,31.41
2018-08-16T14:06:04.518Z,31.00
2018-08-16T14:07:04.503Z,30.47
2018-08-16T14:08:04.493Z,30.27
2018-08-16T14:09:04.514Z,29.64
2018-08-16T14:10:12.150Z,29.38
2018-08-16T14:11:04.465Z,30.57
2018-08-16T14:12:04.458Z,29.75
2018-08-16T14:13:04.491Z,29.17
2018-08-16T14:14:04.441Z,28.68
2018-08-16T14:15:04.440Z,29.08
2018-08-16T14:16:04.439Z,29.49
2018-08-16T14:17:04.408Z,29.60
2018-08-16T14:18:04.440Z,29.98
2018-08-16T14:19:13.714Z,29.39
2018-08-16T14:20:04.377Z,30.18
2018-08-16T14:21:04.365Z,30.80
2018-08-16T14:22:12.217Z,30.41
2018-08-16T14:23:04.347Z,30.48
2018-08-16T14:24:04.371Z,30.66
2018-08-16T14:25:12.248Z,29.88
2018-08-16T14:26:04.339Z,29.18
2018-08-16T14:27:04.314Z,29.85
2018-08-16T14:28:12.276Z,30.29
2018-08-16T14:29:04.308Z,30.69
2018-08-16T14:30:04.289Z,30.97
2018-08-16T14:31:13.354Z,29.30
2018-08-16T14:32:04.322Z,29.46
2018-08-16T14:33:04.227Z,29.77
2018-08-16T14:34:04.225Z,29.06
2018-08-16T14:35:04.252Z,29.15
2018-08-16T14:36:04.207Z,29.15
2018-08-16T14:37:04.200Z,30.27
2018-08-16T14:38:04.183Z,29.77
2018-08-16T14:39:04.166Z,29.86
2018-08-16T14:40:13.356Z,29.54
2018-08-16T14:41:04.154Z,29.75
2018-08-16T14:42:04.139Z,30.16
2018-08-16T14:43:04.132Z,30.26
2018-08-16T14:44:04.139Z,29.69
2018-08-16T14:45:04.112Z,29.39
2018-08-16T14:46:13.403Z,30.29